Time;durP1;ratioP1;P1;durP2;ratioP2;P2;SDS_P1;SDS_P2;PMS_P1;PMS_P2;Temp;Humidity;BMP_temperature;BMP_pressure;BME280_temperature;BME280_humidity;BME280_pressure;Samples;Min_cycle;Max_cycle;Signal;HPM_P1;HPM_P2
2024/04/08 00:01:29;;;;;;;5.63;2.50;;;;;;;18.51;55.11;101131.78;5310251;26;122995;-62
2024/04/08 00:03:57;;;;;;;3.67;2.50;;;;;;;18.47;55.13;101137.34;5302582;26;107287;-62
2024/04/08 00:06:24;;;;;;;4.88;2.40;;;;;;;18.45;55.35;101144.66;5326625;26;107745;-62
2024/04/08 00:08:51;;;;;;;3.72;2.17;;;;;;;18.43;55.62;101157.34;5315076;26;122708;-62
2024/04/08 00:11:18;;;;;;;5.70;2.50;;;;;;;18.41;55.60;101147.69;5335161;26;121735;-62
2024/04/08 00:13:46;;;;;;;4.22;2.20;;;;;;;18.38;55.48;101132.66;5303719;26;107312;-62
2024/04/08 00:16:13;;;;;;;5.95;2.17;;;;;;;18.37;55.74;101125.59;5325329;26;107924;-62
2024/04/08 00:18:42;;;;;;;5.63;2.70;;;;;;;18.34;55.58;101122.28;5311770;26;122671;-62
2024/04/08 00:21:09;;;;;;;4.57;2.30;;;;;;;18.30;55.99;101124.34;5315508;26;122564;-62
2024/04/08 00:23:37;;;;;;;5.18;2.42;;;;;;;18.28;55.87;101121.75;5311608;26;108489;-62
2024/04/08 00:26:05;;;;;;;6.72;2.50;;;;;;;18.28;55.67;101115.56;5309876;26;108537;-62
2024/04/08 00:28:39;;;;;;;5.28;2.25;;;;;;;18.27;55.66;101113.81;5314901;26;122599;-62
2024/04/08 00:31:08;;;;;;;3.75;2.13;;;;;;;18.27;56.09;101097.75;5280117;26;120859;-62
2024/04/08 00:33:37;;;;;;;5.53;2.35;;;;;;;18.26;55.93;101090.69;5317078;26;107739;-62
2024/04/08 00:36:04;;;;;;;4.28;2.05;;;;;;;18.25;55.77;101099.69;5317017;26;107258;-62
2024/04/08 00:38:33;;;;;;;6.10;2.60;;;;;;;18.26;56.12;101098.72;5314766;26;122885;-62
2024/04/08 00:41:02;;;;;;;4.82;2.00;;;;;;;18.24;56.00;101098.84;5336460;26;122496;-62
2024/04/08 00:43:30;;;;;;;5.72;2.13;;;;;;;18.22;55.92;101099.91;5327858;26;107805;-62
2024/04/08 00:45:57;;;;;;;6.30;2.55;;;;;;;18.21;56.13;101111.59;5308555;26;107382;-62
2024/04/08 00:48:25;;;;;;;6.57;2.40;;;;;;;18.20;56.34;101117.94;5285021;26;122173;-62
2024/04/08 00:50:54;;;;;;;6.50;2.53;;;;;;;18.19;56.29;101121.59;5318988;26;122294;-62
2024/04/08 00:53:23;;;;;;;3.88;2.08;;;;;;;18.16;56.14;101111.94;5323972;26;107601;-62
2024/04/08 00:55:52;;;;;;;5.45;2.40;;;;;;;18.15;56.08;101109.38;5303180;26;108400;-62
2024/04/08 00:58:20;;;;;;;4.80;2.40;;;;;;;18.12;55.90;101093.50;5315799;26;122290;-62
2024/04/08 01:00:49;;;;;;;3.75;2.20;;;;;;;18.11;56.17;101086.44;5321741;26;122493;-62
2024/04/08 01:03:16;;;;;;;5.82;2.40;;;;;;;18.08;56.50;101083.03;5326819;26;107637;-62
2024/04/08 01:05:47;;;;;;;4.70;2.42;;;;;;;18.07;56.68;101070.56;5321648;26;107961;-62
2024/04/08 01:08:15;;;;;;;4.80;2.20;;;;;;;18.03;56.61;101058.38;5301946;26;123130;-62
2024/04/08 01:10:43;;;;;;;8.52;2.63;;;;;;;18.00;56.43;101069.31;5287055;26;121044;-62
2024/04/08 01:13:10;;;;;;;4.15;2.28;;;;;;;17.98;56.78;101076.59;5324864;26;109084;-62
2024/04/08 01:15:38;;;;;;;4.70;2.60;;;;;;;17.97;56.83;101085.63;5305499;26;109023;-62
2024/04/08 01:18:06;;;;;;;4.10;2.65;;;;;;;17.96;56.76;101062.47;5313232;26;122003;-62
2024/04/08 01:20:33;;;;;;;5.13;3.00;;;;;;;17.92;56.72;101055.63;5315966;26;122094;-62
2024/04/08 01:23:01;;;;;;;7.53;2.65;;;;;;;17.87;56.94;101052.41;5323179;26;107560;-62
2024/04/08 01:25:29;;;;;;;6.10;2.72;;;;;;;17.83;57.02;101051.75;5334906;26;108213;-62
2024/04/08 01:27:56;;;;;;;6.25;2.95;;;;;;;17.82;56.87;101043.81;5313232;26;121860;-62
2024/04/08 01:30:24;;;;;;;7.50;2.90;;;;;;;17.80;57.02;101045.75;5286788;26;122248;-62
2024/04/08 01:32:53;;;;;;;7.75;2.95;;;;;;;17.78;57.30;101048.56;5299688;26;106684;-62
2024/04/08 01:35:20;;;;;;;6.32;3.28;;;;;;;17.78;57.08;101050.34;5312409;26;108391;-62
2024/04/08 01:37:48;;;;;;;6.80;3.60;;;;;;;17.77;57.16;101045.97;5324315;26;122324;-62
2024/04/08 01:40:15;;;;;;;6.35;3.55;;;;;;;17.77;57.23;101045.97;5323196;26;122319;-62
2024/04/08 01:42:45;;;;;;;7.07;3.80;;;;;;;17.77;57.20;101045.97;5324646;26;107297;-62
2024/04/08 01:45:12;;;;;;;9.13;3.95;;;;;;;17.76;57.64;101049.63;5302813;26;107396;-62
2024/04/08 01:47:39;;;;;;;7.70;3.75;;;;;;;17.75;57.60;101047.91;5303267;26;122193;-62
2024/04/08 01:50:07;;;;;;;8.20;3.95;;;;;;;17.74;57.44;101035.47;5319165;26;121863;-62
2024/04/08 01:52:34;;;;;;;7.30;3.72;;;;;;;17.70;57.76;101030.31;5303325;26;108037;-62
2024/04/08 01:55:03;;;;;;;5.53;3.55;;;;;;;17.70;57.71;101051.75;5331254;26;107449;-62
2024/04/08 01:57:30;;;;;;;6.95;4.10;;;;;;;17.70;58.01;101057.13;5276336;26;121141;-62
2024/04/08 01:59:57;;;;;;;7.07;3.75;;;;;;;17.70;58.01;101041.03;5321588;26;122325;-62
2024/04/08 02:02:25;;;;;;;7.22;3.55;;;;;;;17.71;57.87;101037.41;5328263;26;109028;-62
2024/04/08 02:04:52;;;;;;;7.78;3.67;;;;;;;17.71;57.88;101042.78;5320432;26;107394;-62
2024/04/08 02:07:19;;;;;;;6.53;3.70;;;;;;;17.70;58.10;101041.03;5333944;26;122467;-62
2024/04/08 02:09:47;;;;;;;7.78;3.78;;;;;;;17.71;57.94;101053.50;5366042;21;123210;-84
2024/04/08 02:12:14;;;;;;;9.52;3.75;;;;;;;17.73;58.33;101044.50;5358276;26;105550;-85
2024/04/08 02:14:41;;;;;;;11.30;4.45;;;;;;;17.73;58.19;101044.50;5354477;26;107029;-85
2024/04/08 02:17:09;;;;;;;7.20;4.03;;;;;;;17.73;57.94;101033.78;5378326;26;121608;-85
2024/04/08 02:19:36;;;;;;;6.82;3.70;;;;;;;17.74;58.14;101024.75;5354755;26;121600;-85
2024/04/08 02:22:03;;;;;;;7.55;3.60;;;;;;;17.73;58.06;101025.75;5349563;26;106825;-84
2024/04/08 02:24:31;;;;;;;5.47;3.53;;;;;;;17.73;58.48;101017.72;5346688;26;108397;-85
2024/04/08 02:26:59;;;;;;;8.75;3.75;;;;;;;17.71;58.17;101005.25;5356730;26;123515;-83
2024/04/08 02:29:27;;;;;;;7.32;3.97;;;;;;;17.70;58.17;101003.53;5345099;26;123250;-85
2024/04/08 02:31:54;;;;;;;10.48;3.90;;;;;;;17.68;58.18;100999.28;5370345;26;108214;-86
2024/04/08 02:34:21;;;;;;;6.05;3.40;;;;;;;17.68;58.41;100999.28;5358096;26;107291;-84
2024/04/08 02:36:49;;;;;;;8.40;3.53;;;;;;;17.67;58.30;100992.22;5335695;26;119813;-84
2024/04/08 02:39:16;;;;;;;6.97;3.70;;;;;;;17.64;58.26;100982.56;5349417;26;120491;-85
2024/04/08 02:41:44;;;;;;;7.82;4.30;;;;;;;17.63;58.69;100980.88;5340806;26;106606;-85
2024/04/08 02:44:11;;;;;;;8.57;3.60;;;;;;;17.63;58.47;100991.59;5326173;26;107110;-85
2024/04/08 02:46:39;;;;;;;9.32;4.15;;;;;;;17.63;58.71;100991.59;5338999;26;122254;-83
2024/04/08 02:49:06;;;;;;;7.45;4.10;;;;;;;17.63;58.58;100991.59;5297663;26;120919;-86
2024/04/08 02:51:34;;;;;;;7.55;4.47;;;;;;;17.64;58.71;101001.31;5338783;26;109207;-84
2024/04/08 02:54:02;;;;;;;6.80;4.00;;;;;;;17.65;58.87;101003.03;5347406;26;107624;-84
2024/04/08 02:56:29;;;;;;;7.18;4.07;;;;;;;17.66;58.93;100990.50;5344864;26;121857;-84
2024/04/08 02:58:56;;;;;;;10.35;3.80;;;;;;;17.65;58.79;100981.63;5335411;26;122308;-85
2024/04/08 03:01:24;;;;;;;5.07;3.75;;;;;;;17.65;58.97;100984.28;5378571;26;107920;-84
2024/04/08 03:03:53;;;;;;;9.32;3.67;;;;;;;17.64;59.04;100981.72;5345484;26;108045;-84
2024/04/08 03:06:20;;;;;;;7.68;3.70;;;;;;;17.63;58.88;100986.22;5353490;26;119720;-85
2024/04/08 03:08:48;;;;;;;5.57;3.53;;;;;;;17.63;58.83;100980.88;5327529;26;121286;-84
2024/04/08 03:11:15;;;;;;;7.47;3.42;;;;;;;17.59;58.61;100963.28;5348374;26;105243;-84
2024/04/08 03:13:44;;;;;;;6.45;3.50;;;;;;;17.59;58.82;100974.00;5367591;26;108096;-85
2024/04/08 03:16:11;;;;;;;6.85;3.58;;;;;;;17.58;58.93;100966.09;5322517;26;121303;-82
2024/04/08 03:18:38;;;;;;;6.05;3.80;;;;;;;17.56;58.81;100974.25;5353537;26;123167;-85
2024/04/08 03:21:06;;;;;;;8.15;3.95;;;;;;;17.56;59.02;101000.19;5344824;26;106528;-84
2024/04/08 03:23:33;;;;;;;5.90;3.53;;;;;;;17.57;59.04;101004.56;5345008;26;106503;-83
2024/04/08 03:26:08;;;;;;;8.60;3.85;;;;;;;17.57;59.09;101008.06;5338419;26;121288;-82
2024/04/08 03:28:35;;;;;;;7.35;3.63;;;;;;;17.59;59.19;101006.13;5350107;26;123726;-83
2024/04/08 03:31:05;;;;;;;7.88;4.28;;;;;;;17.59;58.89;101011.50;5344728;26;108454;-84
2024/04/08 03:33:33;;;;;;;5.20;3.50;;;;;;;17.59;58.73;101016.84;5353787;26;108830;-85
2024/04/08 03:36:07;;;;;;;9.02;4.00;;;;;;;17.58;59.05;101015.16;5370200;26;122027;-85
2024/04/08 03:38:35;;;;;;;7.95;4.00;;;;;;;17.59;58.66;101016.00;5366629;26;121433;-85
2024/04/08 03:41:04;;;;;;;8.30;4.15;;;;;;;17.58;58.83;101009.81;5372220;26;107409;-84
2024/04/08 03:43:33;;;;;;;7.78;4.38;;;;;;;17.59;59.17;101005.28;5348813;26;109625;-85
2024/04/08 03:46:00;;;;;;;6.28;4.50;;;;;;;17.58;59.19;100999.09;5317539;26;120036;-84
2024/04/08 03:48:29;;;;;;;8.07;4.05;;;;;;;17.57;59.10;100997.38;5347453;26;122580;-83
2024/04/08 03:51:09;;;;;;;10.02;4.30;;;;;;;17.57;59.02;100997.38;5356116;26;105554;-84
2024/04/08 03:53:37;;;;;;;6.90;3.97;;;;;;;17.57;58.89;100992.00;5344829;26;106759;-84
2024/04/08 03:56:06;;;;;;;6.68;4.40;;;;;;;17.57;59.16;100989.31;5332744;26;121393;-83
2024/04/08 03:58:33;;;;;;;8.55;4.93;;;;;;;17.58;59.30;100971.47;5348596;26;121472;-84
2024/04/08 04:01:01;;;;;;;7.13;4.45;;;;;;;17.57;59.29;100975.94;5339767;26;106614;-84
2024/04/08 04:03:29;;;;;;;6.55;4.35;;;;;;;17.58;59.25;100977.66;5337432;26;105532;-84
2024/04/08 04:05:56;;;;;;;6.80;4.35;;;;;;;17.58;59.49;100985.69;5379077;26;121152;-84
2024/04/08 04:08:23;;;;;;;6.63;4.15;;;;;;;17.60;59.19;100986.44;5337159;26;120885;-85
2024/04/08 04:10:51;;;;;;;7.18;4.57;;;;;;;17.59;59.16;100968.66;5366186;26;105659;-85
2024/04/08 04:13:18;;;;;;;7.97;4.90;;;;;;;17.57;59.44;100959.88;5370259;26;105386;-84
2024/04/08 04:15:45;;;;;;;8.70;4.20;;;;;;;17.58;59.50;100956.22;5352722;26;123021;-84
2024/04/08 04:18:12;;;;;;;7.20;4.47;;;;;;;17.58;59.30;100961.59;5320901;26;121202;-84
2024/04/08 04:20:42;;;;;;;13.10;4.72;;;;;;;17.58;59.41;100950.03;5347289;26;106917;-82
2024/04/08 04:23:16;;;;;;;11.02;4.60;;;;;;;17.57;59.40;100938.44;5349846;26;106551;-83
2024/04/08 04:25:54;;;;;;;;;;;;;;;17.51;58.71;100920.16;5364857;26;122882;-86
2024/04/08 04:28:21;;;;;;;8.68;4.50;;;;;;;17.51;58.69;100914.78;5369530;26;120490;-84
2024/04/08 04:30:55;;;;;;;8.73;4.70;;;;;;;17.49;59.26;100904.19;5359929;26;108194;-84
2024/04/08 04:33:23;;;;;;;7.38;4.15;;;;;;;17.47;59.39;100879.34;5351414;26;110296;-85
2024/04/08 04:35:54;;;;;;;10.55;4.38;;;;;;;17.42;59.39;100886.00;5345948;26;121019;-83
2024/04/08 04:38:22;;;;;;;8.23;4.50;;;;;;;17.39;59.23;100902.31;5370037;26;120975;-85
2024/04/08 04:41:03;;;;;;;12.73;5.05;;;;;;;17.35;59.12;100900.81;5369638;26;108412;-84
2024/04/08 04:43:31;;;;;;;8.57;4.40;;;;;;;17.34;59.50;100909.81;5365428;26;107275;-83
2024/04/08 04:45:59;;;;;;;6.32;4.63;;;;;;;17.30;59.49;100915.38;5346383;26;120377;-83
2024/04/08 04:48:26;;;;;;;7.03;4.22;;;;;;;17.29;59.42;100919.06;5351108;26;120959;-86
2024/04/08 04:50:54;;;;;;;7.15;4.05;;;;;;;17.30;59.62;100920.75;5376970;26;106581;-83
2024/04/08 04:53:21;;;;;;;7.28;4.30;;;;;;;17.31;59.31;100906.41;5346234;26;105390;-84
2024/04/08 04:55:53;;;;;;;8.00;4.55;;;;;;;17.29;59.28;100903.00;5335231;26;122356;-84
2024/04/08 04:58:21;;;;;;;10.45;4.50;;;;;;;17.33;59.64;100903.63;5366171;26;123531;-83
2024/04/08 05:00:49;;;;;;;7.60;4.45;;;;;;;17.33;59.33;100903.63;5372927;26;105452;-83
2024/04/08 05:03:18;;;;;;;8.70;4.95;;;;;;;17.34;59.63;100909.81;5343374;26;107830;-85
2024/04/08 05:05:56;;;;;;;10.98;5.03;;;;;;;17.31;59.71;100925.16;5349062;26;120871;-84
2024/04/08 05:08:24;;;;;;;7.30;4.80;;;;;;;17.33;59.60;100935.75;5362327;26;121226;-84
2024/04/08 05:10:51;;;;;;;6.82;4.75;;;;;;;17.34;59.61;100936.59;5356544;26;111100;-84
2024/04/08 05:13:19;;;;;;;7.47;4.43;;;;;;;17.32;59.27;100940.22;5343054;26;106377;-85
2024/04/08 05:15:57;;;;;;;7.85;4.72;;;;;;;17.34;59.31;100952.66;5373482;26;123311;-84
2024/04/08 05:18:25;;;;;;;6.32;4.45;;;;;;;17.36;59.67;100953.41;5386594;26;121603;-84
2024/04/08 05:20:53;;;;;;;11.88;5.10;;;;;;;17.37;59.63;100952.44;5336143;26;107726;-85
2024/04/08 05:23:21;;;;;;;7.18;4.70;;;;;;;17.39;59.58;100937.13;5342218;26;107600;-84
2024/04/08 05:25:52;;;;;;;6.70;4.38;;;;;;;17.38;59.80;100948.78;5353867;26;120197;-84
2024/04/08 05:28:21;;;;;;;8.95;4.70;;;;;;;17.41;59.63;100953.94;5357612;26;121092;-84
2024/04/08 05:30:48;;;;;;;8.55;4.80;;;;;;;17.39;59.87;100940.66;5360267;26;106707;-85
2024/04/08 05:33:16;;;;;;;6.78;4.78;;;;;;;17.41;59.78;100949.44;5352437;26;107162;-85
2024/04/08 05:35:44;;;;;;;8.43;5.13;;;;;;;17.41;59.62;100948.56;5393475;25;121733;-84
2024/04/08 05:38:12;;;;;;;9.40;5.20;;;;;;;17.41;59.58;100954.78;5386388;26;120841;-86
2024/04/08 05:40:40;;;;;;;9.23;5.00;;;;;;;17.42;59.56;100971.69;5358588;26;105701;-89
2024/04/08 05:43:08;;;;;;;10.98;5.32;;;;;;;17.42;59.82;100987.75;5379999;26;106545;-87
2024/04/08 05:45:35;;;;;;;9.68;5.15;;;;;;;17.42;59.68;100993.13;5349604;26;121169;-84
2024/04/08 05:48:04;;;;;;;10.02;5.78;;;;;;;17.43;59.67;101000.19;5353773;26;122377;-86
2024/04/08 05:51:02;;;;;;;7.75;4.90;;;;;;;17.42;59.80;101003.81;5363512;26;106538;-90
2024/04/08 05:53:36;;;;;;;9.93;4.88;;;;;;;17.42;60.10;101004.69;5348367;26;106776;-88
2024/04/08 05:56:04;;;;;;;7.55;4.88;;;;;;;17.42;59.74;100996.66;5310889;26;120484;-90
2024/04/08 05:58:31;;;;;;;9.82;5.07;;;;;;;17.45;60.13;100984.88;5362303;26;120500;-87
2024/04/08 06:00:59;;;;;;;8.35;4.70;;;;;;;17.48;60.18;100965.91;5332236;26;106078;-85
2024/04/08 06:03:26;;;;;;;7.25;4.72;;;;;;;17.50;59.90;100926.50;5300257;26;106513;-86
2024/04/08 06:05:53;;;;;;;7.35;4.72;;;;;;;17.50;59.75;100915.78;5342533;26;121790;-88
2024/04/08 06:08:20;;;;;;;7.18;4.80;;;;;;;17.48;59.72;100905.19;5321275;26;121110;-86
2024/04/08 06:10:50;;;;;;;10.38;4.70;;;;;;;17.48;60.04;100896.28;5335333;26;107463;-85
2024/04/08 06:13:18;;;;;;;6.97;5.18;;;;;;;17.50;60.12;100894.34;5333126;26;107543;-87
2024/04/08 06:15:45;;;;;;;8.93;5.20;;;;;;;17.53;60.01;100904.81;5340428;26;123041;-85
2024/04/08 06:18:12;;;;;;;10.32;5.30;;;;;;;17.59;60.23;100901.69;5345114;26;122534;-87
2024/04/08 06:20:40;;;;;;;7.32;5.03;;;;;;;17.64;60.22;100907.56;5328355;26;107786;-87
2024/04/08 06:23:07;;;;;;;6.90;4.85;;;;;;;17.68;60.18;100924.28;5333607;26;106502;-85
2024/04/08 06:25:34;;;;;;;8.60;4.82;;;;;;;17.74;60.48;100944.41;5352637;26;122097;-85
2024/04/08 06:28:01;;;;;;;8.95;4.85;;;;;;;17.81;60.56;100972.44;5335413;26;120142;-88
2024/04/08 06:30:29;;;;;;;8.35;4.78;;;;;;;17.89;60.18;100970.97;5342295;26;107845;-86
2024/04/08 06:32:57;;;;;;;9.45;5.80;;;;;;;17.94;60.24;100962.56;5358429;26;106662;-87
2024/04/08 06:35:25;;;;;;;10.05;5.18;;;;;;;18.00;60.09;100964.78;5337907;26;122038;-86
2024/04/08 06:37:52;;;;;;;8.45;5.53;;;;;;;18.07;59.85;100963.34;5308275;26;121369;-88
2024/04/08 06:40:19;;;;;;;9.48;5.20;;;;;;;18.13;60.02;100974.59;5294243;26;106835;-86
2024/04/08 06:42:46;;;;;;;10.32;4.95;;;;;;;18.19;60.18;100982.19;5327679;26;107957;-87
2024/04/08 06:45:14;;;;;;;9.40;5.57;;;;;;;18.23;60.02;100989.88;5349885;26;121692;-87
2024/04/08 06:47:41;;;;;;;8.00;5.55;;;;;;;18.28;59.78;100992.22;5333946;26;122392;-86
2024/04/08 06:50:08;;;;;;;9.77;5.30;;;;;;;18.32;59.84;100992.84;5330053;26;107465;-86
2024/04/08 06:52:36;;;;;;;8.00;4.85;;;;;;;18.34;59.76;100991.75;5360104;26;106406;-86
2024/04/08 06:55:03;;;;;;;6.47;4.88;;;;;;;18.38;59.69;100992.38;5366647;26;121441;-85
2024/04/08 06:57:31;;;;;;;7.18;5.15;;;;;;;18.38;59.55;100982.50;5305027;26;121391;-85
2024/04/08 06:59:58;;;;;;;9.15;4.95;;;;;;;18.41;59.68;100993.00;5338426;26;107341;-86
2024/04/08 07:02:26;;;;;;;7.85;5.05;;;;;;;18.42;59.32;100984.00;5318744;26;108673;-86
2024/04/08 07:04:54;;;;;;;10.38;4.90;;;;;;;18.44;59.78;100971.31;5305905;26;122108;-85
2024/04/08 07:07:21;;;;;;;7.18;5.07;;;;;;;18.47;59.67;100971.06;5347346;26;122268;-85
2024/04/08 07:09:48;;;;;;;8.98;5.30;;;;;;;18.52;59.46;100977.94;5325029;26;107576;-87
2024/04/08 07:12:16;;;;;;;8.85;5.43;;;;;;;18.55;59.49;100977.69;5360040;26;107412;-85
2024/04/08 07:14:43;;;;;;;9.48;5.47;;;;;;;18.58;59.58;100970.25;5330812;26;121626;-84
2024/04/08 07:17:10;;;;;;;7.85;4.88;;;;;;;18.62;59.59;100962.81;5320990;26;122238;-87
2024/04/08 07:19:38;;;;;;;8.90;5.15;;;;;;;18.62;59.36;100962.81;5341450;26;107275;-86
2024/04/08 07:22:05;;;;;;;8.73;5.03;;;;;;;18.66;59.39;100953.56;5300491;26;107170;-85
2024/04/08 07:24:32;;;;;;;9.35;5.07;;;;;;;18.71;59.49;100940.66;5335467;26;121624;-85
2024/04/08 07:27:01;;;;;;;10.95;5.43;;;;;;;18.78;59.43;100936.53;5334711;26;121346;-84
2024/04/08 07:29:28;;;;;;;10.35;4.70;;;;;;;18.86;59.51;100938.63;5360771;26;107878;-85
2024/04/08 07:31:55;;;;;;;8.70;4.95;;;;;;;18.96;59.29;100933.38;5311523;26;106465;-86
2024/04/08 07:34:23;;;;;;;7.55;4.32;;;;;;;19.04;59.19;100930.94;5337249;26;119755;-86
2024/04/08 07:36:50;;;;;;;9.30;4.80;;;;;;;19.13;59.27;100924.00;5339608;26;121322;-86
2024/04/08 07:39:17;;;;;;;6.35;4.45;;;;;;;19.20;58.92;100915.31;5299915;26;106898;-86
2024/04/08 07:41:45;;;;;;;9.57;5.07;;;;;;;19.29;58.93;100924.47;5335424;26;106338;-85
2024/04/08 07:44:15;;;;;;;8.68;4.72;;;;;;;19.36;58.73;100924.81;5322564;26;121420;-84
2024/04/08 07:46:42;;;;;;;12.50;5.10;;;;;;;19.46;59.01;100925.81;5352875;26;121221;-86
2024/04/08 07:49:10;;;;;;;6.60;4.30;;;;;;;19.52;58.42;100930.66;5359552;26;107729;-85
2024/04/08 07:51:37;;;;;;;7.35;4.25;;;;;;;19.57;58.66;100933.84;5340700;26;107337;-88
2024/04/08 07:54:04;;;;;;;7.68;4.78;;;;;;;19.63;58.18;100932.47;5311738;26;121238;-85
2024/04/08 07:56:33;;;;;;;7.70;4.22;;;;;;;19.68;58.07;100924.88;5332841;26;120983;-86
2024/04/08 07:59:00;;;;;;;7.40;4.88;;;;;;;19.73;57.66;100919.19;5328506;26;107605;-83
2024/04/08 08:01:28;;;;;;;8.35;5.25;;;;;;;19.77;57.63;100909.88;5338076;26;107109;-86
2024/04/08 08:03:55;;;;;;;7.72;5.38;;;;;;;19.79;57.42;100894.47;5340375;26;120894;-84
2024/04/08 08:06:22;;;;;;;10.32;5.45;;;;;;;19.78;57.00;100903.53;5339684;26;121167;-84
2024/04/08 08:08:49;;;;;;;9.35;5.80;;;;;;;19.78;57.24;100911.59;5369197;26;107311;-87
2024/04/08 08:11:17;;;;;;;10.13;5.78;;;;;;;19.81;57.58;100909.47;5332561;26;107141;-85
2024/04/08 08:13:45;;;;;;;11.95;6.60;;;;;;;19.86;57.03;100909.13;5337308;26;121199;-84
2024/04/08 08:16:12;;;;;;;10.02;6.00;;;;;;;19.92;57.33;100903.22;5363032;26;122064;-84
2024/04/08 08:18:39;;;;;;;9.57;6.28;;;;;;;20.01;57.49;100890.84;5340827;26;107825;-85
2024/04/08 08:21:07;;;;;;;10.18;7.05;;;;;;;20.12;57.36;100889.94;5335122;26;106934;-85
2024/04/08 08:23:34;;;;;;;11.02;7.40;;;;;;;20.21;57.37;100884.63;5328246;26;122042;-84
2024/04/08 08:26:02;;;;;;;9.52;7.72;;;;;;;20.35;57.33;100885.28;5334198;26;121686;-84
2024/04/08 08:28:29;;;;;;;12.88;7.60;;;;;;;20.48;56.86;100874.34;5335326;26;105797;-85
2024/04/08 08:30:56;;;;;;;13.07;7.47;;;;;;;20.54;56.66;100873.78;5319816;26;107644;-87
2024/04/08 08:33:24;;;;;;;14.45;7.50;;;;;;;20.63;56.53;100896.41;5291730;26;120206;-87
2024/04/08 08:35:51;;;;;;;10.52;7.32;;;;;;;20.70;56.91;100901.13;5335233;26;121529;-84
2024/04/08 08:38:19;;;;;;;10.55;6.25;;;;;;;20.84;56.98;100907.13;5309408;26;107767;-82
2024/04/08 08:41:00;;;;;;;10.52;7.22;;;;;;;20.97;56.26;100883.53;5338801;26;107849;-85
2024/04/08 08:43:31;;;;;;;12.05;6.75;;;;;;;21.08;56.08;100888.81;5333911;26;122266;-84
2024/04/08 08:45:59;;;;;;;11.95;6.63;;;;;;;21.16;55.72;100888.97;5337498;26;122095;-84
2024/04/08 08:48:26;;;;;;;12.48;7.22;;;;;;;21.26;55.53;100896.22;5339898;26;107634;-85
2024/04/08 08:50:58;;;;;;;9.43;6.25;;;;;;;21.35;55.22;100911.56;5339607;26;106391;-84
2024/04/08 08:53:25;;;;;;;8.55;6.28;;;;;;;21.46;55.31;100908.81;5367397;26;121839;-84
2024/04/08 08:55:55;;;;;;;9.95;5.70;;;;;;;21.54;54.80;100908.09;5333367;26;121083;-84
2024/04/08 08:58:23;;;;;;;9.95;6.03;;;;;;;21.62;54.61;100902.00;5338892;26;107542;-84
2024/04/08 09:00:51;;;;;;;8.73;5.80;;;;;;;21.64;54.61;100889.25;5317647;26;106423;-85
2024/04/08 09:03:21;;;;;;;8.65;5.82;;;;;;;21.74;54.57;100884.75;5336732;26;121127;-85
2024/04/08 09:05:50;;;;;;;8.35;6.25;;;;;;;21.84;53.95;100874.78;5350589;26;119931;-85
2024/04/08 09:08:17;;;;;;;9.45;5.82;;;;;;;21.90;53.46;100876.91;5359186;26;107211;-83
2024/04/08 09:10:46;;;;;;;8.18;5.50;;;;;;;21.96;53.44;100883.59;5343615;26;106370;-87
2024/04/08 09:13:22;;;;;;;8.07;5.05;;;;;;;22.05;53.84;100892.69;5349268;26;121074;-84
2024/04/08 09:15:52;;;;;;;7.18;5.05;;;;;;;22.16;53.57;100895.22;5322312;26;121267;-84
2024/04/08 09:18:21;;;;;;;9.40;5.90;;;;;;;22.26;52.97;100901.47;5348520;26;107553;-84
2024/04/08 09:20:49;;;;;;;10.98;6.45;;;;;;;22.23;52.36;100901.75;5325741;26;106646;-85
2024/04/08 09:23:17;;;;;;;12.63;7.28;;;;;;;22.28;53.34;100894.13;5327293;26;121451;-84
2024/04/08 09:25:45;;;;;;;13.38;7.13;;;;;;;22.39;52.86;100894.94;5362425;26;122160;-84
2024/04/08 09:28:12;;;;;;;14.30;9.57;;;;;;;22.52;52.75;100906.28;5327618;26;108125;-85
2024/04/08 09:30:41;;;;;;;17.95;12.07;;;;;;;22.68;52.79;100901.13;5334715;26;107431;-84
2024/04/08 09:33:10;;;;;;;16.25;12.95;;;;;;;22.81;52.34;100894.53;5352726;26;121187;-84
2024/04/08 09:35:40;;;;;;;17.88;13.38;;;;;;;22.92;52.15;100888.94;5326582;26;121980;-85
2024/04/08 09:38:12;;;;;;;16.67;12.30;;;;;;;22.93;51.55;100877.16;5339326;26;106411;-84
2024/04/08 09:40:42;;;;;;;16.98;12.05;;;;;;;22.94;51.48;100863.50;5332258;26;107781;-84
2024/04/08 09:43:11;;;;;;;16.15;12.32;;;;;;;23.00;51.58;100856.66;5356012;26;122058;-85
2024/04/08 09:45:42;;;;;;;18.17;12.20;;;;;;;23.10;50.95;100857.47;5330867;26;121839;-84
2024/04/08 09:48:12;;;;;;;16.15;12.05;;;;;;;23.13;50.50;100868.00;5330757;26;110108;-84
2024/04/08 09:50:43;;;;;;;15.93;12.45;;;;;;;23.11;50.75;100863.72;5325969;26;107922;-84
2024/04/08 09:53:11;;;;;;;14.48;12.77;;;;;;;23.11;50.44;100866.44;5321845;26;121488;-84
2024/04/08 09:55:42;;;;;;;18.27;12.60;;;;;;;23.12;50.32;100866.28;5337503;26;120993;-84
2024/04/08 09:58:18;;;;;;;13.55;9.48;;;;;;;23.10;49.42;100857.47;5336220;26;106761;-84
2024/04/08 10:00:45;;;;;;;13.15;9.68;;;;;;;23.06;50.32;100845.28;5328344;26;106258;-85
2024/04/08 10:03:15;;;;;;;12.98;8.60;;;;;;;23.11;50.53;100843.00;5338295;26;122594;-84
2024/04/08 10:05:44;;;;;;;11.13;8.45;;;;;;;23.23;50.03;100840.06;5303584;26;121899;-84
2024/04/08 10:08:12;;;;;;;13.52;8.45;;;;;;;23.31;50.02;100848.25;5348573;26;106699;-84
2024/04/08 10:10:41;;;;;;;8.95;5.63;;;;;;;23.39;49.78;100848.34;5346492;26;107649;-84
2024/04/08 10:13:09;;;;;;;10.25;5.10;;;;;;;23.46;50.28;100835.91;5288975;26;121455;-84
2024/04/08 10:15:39;;;;;;;10.38;5.18;;;;;;;23.58;49.80;100828.41;5333171;26;124102;-84
2024/04/08 10:18:07;;;;;;;9.95;5.60;;;;;;;23.67;49.77;100821.25;5350929;26;108371;-84
2024/04/08 10:20:34;;;;;;;7.03;5.07;;;;;;;23.73;49.48;100828.72;5356681;26;108235;-84
2024/04/08 10:23:02;;;;;;;7.13;4.50;;;;;;;23.82;49.56;100829.69;5317724;26;121338;-85
2024/04/08 10:25:43;;;;;;;9.70;4.97;;;;;;;23.92;49.66;100835.00;5344242;26;122421;-84
2024/04/08 10:28:13;;;;;;;10.27;5.20;;;;;;;24.03;49.34;100837.47;5326675;26;106020;-84
2024/04/08 10:30:51;;;;;;;7.82;4.65;;;;;;;24.12;49.79;100836.53;5357320;26;109193;-85
2024/04/08 10:33:59;;;;;;;7.45;4.47;;;;;;;24.24;49.35;100824.44;5260162;26;121534;-84
2024/04/08 10:36:27;;;;;;;6.70;4.05;;;;;;;24.27;48.15;100832.25;5335631;26;122312;-84
2024/04/08 10:38:55;;;;;;;6.10;3.70;;;;;;;24.23;47.84;100820.03;5333506;26;107365;-83
2024/04/08 10:41:22;;;;;;;6.07;4.15;;;;;;;24.23;48.02;100822.75;5318950;26;107177;-85
2024/04/08 10:43:49;;;;;;;5.97;4.35;;;;;;;24.21;47.76;100822.06;5332246;26;122267;-84
2024/04/08 10:46:18;;;;;;;5.50;4.00;;;;;;;24.22;47.77;100815.66;5331125;26;121273;-85
2024/04/08 10:48:46;;;;;;;5.82;3.88;;;;;;;24.28;47.20;100820.41;5328526;26;107970;-84
2024/04/08 10:51:13;;;;;;;4.82;3.67;;;;;;;24.38;48.16;100819.47;5327279;26;105789;-84
2024/04/08 10:53:40;;;;;;;5.00;3.50;;;;;;;24.47;47.82;100818.50;5335142;26;122637;-84
2024/04/08 10:56:08;;;;;;;7.15;4.15;;;;;;;24.55;46.88;100817.72;5334428;26;120876;-84
2024/04/08 10:58:35;;;;;;;6.25;3.85;;;;;;;24.51;47.32;100809.03;5354129;26;107851;-86
2024/04/08 11:01:04;;;;;;;6.10;3.92;;;;;;;24.48;46.84;100803.94;5315032;26;106875;-86
2024/04/08 11:03:31;;;;;;;5.63;3.78;;;;;;;24.49;46.65;100789.41;5350710;26;122031;-84
2024/04/08 11:05:59;;;;;;;5.63;4.07;;;;;;;24.44;46.48;100787.16;5355854;26;121727;-84
2024/04/08 11:08:27;;;;;;;7.05;4.05;;;;;;;24.39;46.29;100796.78;5353521;26;109914;-85
2024/04/08 11:10:58;;;;;;;8.13;4.50;;;;;;;24.38;46.75;100800.50;5334170;26;108046;-84
2024/04/08 11:13:26;;;;;;;7.13;4.20;;;;;;;24.41;46.41;100808.28;5352342;26;121499;-84
2024/04/08 11:15:54;;;;;;;6.40;4.40;;;;;;;24.45;46.18;100804.28;5322625;26;122290;-84
2024/04/08 11:18:22;;;;;;;8.02;5.07;;;;;;;24.45;46.44;100796.16;5362202;26;107892;-85
2024/04/08 11:20:49;;;;;;;6.10;3.90;;;;;;;24.44;46.51;100798.00;5329595;26;106942;-84